sensor_id;sensor_type;location;lat;lon;timestamp;P1;durP1;ratioP1;P2;durP2;ratioP2
6638;SDS011;3355;52.882;8.430;2024-03-25T00:01:20;4.40;;;2.30;;
6638;SDS011;3355;52.882;8.430;2024-03-25T07:06:03;8.70;;;2.37;;
6638;SDS011;3355;52.882;8.430;2024-03-25T07:08:28;7.20;;;2.87;;
6638;SDS011;3355;52.882;8.430;2024-03-25T07:10:55;5.50;;;2.97;;
6638;SDS011;3355;52.882;8.430;2024-03-25T07:13:20;7.60;;;2.87;;
6638;SDS011;3355;52.882;8.430;2024-03-25T07:15:46;4.63;;;2.33;;
6638;SDS011;3355;52.882;8.430;2024-03-25T07:18:11;5.43;;;2.27;;
6638;SDS011;3355;52.882;8.430;2024-03-25T07:20:37;3.87;;;1.60;;
6638;SDS011;3355;52.882;8.430;2024-03-25T07:23:04;5.63;;;1.97;;
6638;SDS011;3355;52.882;8.430;2024-03-25T07:25:32;5.80;;;2.00;;
6638;SDS011;3355;52.882;8.430;2024-03-25T07:27:58;5.97;;;2.03;;
6638;SDS011;3355;52.882;8.430;2024-03-25T07:30:23;5.10;;;2.17;;
6638;SDS011;3355;52.882;8.430;2024-03-25T07:32:49;6.83;;;2.60;;
6638;SDS011;3355;52.882;8.430;2024-03-25T07:35:14;6.27;;;1.80;;
6638;SDS011;3355;52.882;8.430;2024-03-25T07:37:40;8.90;;;2.80;;
6638;SDS011;3355;52.882;8.430;2024-03-25T07:40:07;3.67;;;1.57;;
6638;SDS011;3355;52.882;8.430;2024-03-25T07:42:34;8.23;;;2.53;;
6638;SDS011;3355;52.882;8.430;2024-03-25T07:44:59;8.90;;;2.60;;
6638;SDS011;3355;52.882;8.430;2024-03-25T07:47:25;11.13;;;2.40;;
6638;SDS011;3355;52.882;8.430;2024-03-25T07:49:50;3.60;;;2.07;;
6638;SDS011;3355;52.882;8.430;2024-03-25T07:52:16;6.00;;;2.20;;
6638;SDS011;3355;52.882;8.430;2024-03-25T07:54:41;6.20;;;1.87;;
6638;SDS011;3355;52.882;8.430;2024-03-25T07:57:08;5.63;;;2.00;;
6638;SDS011;3355;52.882;8.430;2024-03-25T07:59:33;5.77;;;2.23;;
6638;SDS011;3355;52.882;8.430;2024-03-25T08:01:59;5.20;;;2.00;;
6638;SDS011;3355;52.882;8.430;2024-03-25T08:04:24;14.20;;;2.17;;
6638;SDS011;3355;52.882;8.430;2024-03-25T08:06:50;6.60;;;2.43;;
6638;SDS011;3355;52.882;8.430;2024-03-25T08:09:15;2.93;;;1.43;;
6638;SDS011;3355;52.882;8.430;2024-03-25T08:11:41;5.93;;;1.63;;
6638;SDS011;3355;52.882;8.430;2024-03-25T08:14:08;8.23;;;2.27;;
6638;SDS011;3355;52.882;8.430;2024-03-25T08:16:33;7.00;;;2.50;;
6638;SDS011;3355;52.882;8.430;2024-03-25T08:18:58;4.93;;;1.80;;
6638;SDS011;3355;52.882;8.430;2024-03-25T08:21:24;6.67;;;1.70;;
6638;SDS011;3355;52.882;8.430;2024-03-25T08:23:49;5.87;;;2.33;;
6638;SDS011;3355;52.882;8.430;2024-03-25T08:26:15;4.23;;;1.67;;
6638;SDS011;3355;52.882;8.430;2024-03-25T08:28:40;11.40;;;2.30;;
6638;SDS011;3355;52.882;8.430;2024-03-25T08:31:07;7.27;;;2.10;;
6638;SDS011;3355;52.882;8.430;2024-03-25T08:33:33;6.60;;;2.10;;
6638;SDS011;3355;52.882;8.430;2024-03-25T08:35:58;11.67;;;2.57;;
6638;SDS011;3355;52.882;8.430;2024-03-25T08:38:24;7.10;;;2.00;;
6638;SDS011;3355;52.882;8.430;2024-03-25T08:40:50;4.83;;;1.43;;
6638;SDS011;3355;52.882;8.430;2024-03-25T08:43:16;8.50;;;1.93;;
6638;SDS011;3355;52.882;8.430;2024-03-25T08:45:41;7.10;;;1.93;;
6638;SDS011;3355;52.882;8.430;2024-03-25T08:48:08;6.70;;;2.30;;
6638;SDS011;3355;52.882;8.430;2024-03-25T08:50:33;9.10;;;2.37;;
6638;SDS011;3355;52.882;8.430;2024-03-25T08:52:59;5.77;;;1.97;;
6638;SDS011;3355;52.882;8.430;2024-03-25T08:55:27;7.53;;;1.83;;
6638;SDS011;3355;52.882;8.430;2024-03-25T08:57:53;4.13;;;1.83;;
6638;SDS011;3355;52.882;8.430;2024-03-25T09:00:18;4.00;;;1.00;;
6638;SDS011;3355;52.882;8.430;2024-03-25T09:02:43;4.20;;;1.87;;
6638;SDS011;3355;52.882;8.430;2024-03-25T09:05:10;6.33;;;2.33;;
6638;SDS011;3355;52.882;8.430;2024-03-25T09:07:36;6.33;;;2.43;;
6638;SDS011;3355;52.882;8.430;2024-03-25T09:10:01;6.13;;;2.40;;
6638;SDS011;3355;52.882;8.430;2024-03-25T09:12:45;6.63;;;2.23;;
6638;SDS011;3355;52.882;8.430;2024-03-25T09:15:11;6.20;;;1.83;;
6638;SDS011;3355;52.882;8.430;2024-03-25T09:17:36;5.40;;;2.10;;
6638;SDS011;3355;52.882;8.430;2024-03-25T09:20:12;5.77;;;1.83;;
6638;SDS011;3355;52.882;8.430;2024-03-25T09:22:41;5.90;;;2.20;;
6638;SDS011;3355;52.882;8.430;2024-03-25T09:25:06;6.37;;;1.77;;
6638;SDS011;3355;52.882;8.430;2024-03-25T09:27:32;4.40;;;1.70;;
6638;SDS011;3355;52.882;8.430;2024-03-25T09:29:57;3.10;;;1.30;;
6638;SDS011;3355;52.882;8.430;2024-03-25T09:32:23;4.47;;;1.93;;
6638;SDS011;3355;52.882;8.430;2024-03-25T09:34:48;4.23;;;1.80;;
6638;SDS011;3355;52.882;8.430;2024-03-25T09:37:15;6.20;;;1.70;;
6638;SDS011;3355;52.882;8.430;2024-03-25T09:39:41;4.57;;;1.80;;
6638;SDS011;3355;52.882;8.430;2024-03-25T09:42:07;4.67;;;2.33;;
6638;SDS011;3355;52.882;8.430;2024-03-25T09:44:33;6.37;;;2.13;;
6638;SDS011;3355;52.882;8.430;2024-03-25T09:46:58;7.57;;;2.70;;
6638;SDS011;3355;52.882;8.430;2024-03-25T09:49:25;4.10;;;1.80;;
6638;SDS011;3355;52.882;8.430;2024-03-25T09:51:50;4.73;;;1.90;;
6638;SDS011;3355;52.882;8.430;2024-03-25T09:54:17;6.17;;;1.60;;
6638;SDS011;3355;52.882;8.430;2024-03-25T09:56:43;4.03;;;1.90;;
6638;SDS011;3355;52.882;8.430;2024-03-25T09:59:09;5.97;;;2.10;;
6638;SDS011;3355;52.882;8.430;2024-03-25T10:01:34;4.67;;;1.70;;
6638;SDS011;3355;52.882;8.430;2024-03-25T10:04:09;7.80;;;2.10;;
6638;SDS011;3355;52.882;8.430;2024-03-25T10:06:35;4.73;;;1.60;;
6638;SDS011;3355;52.882;8.430;2024-03-25T10:09:00;5.50;;;1.73;;
6638;SDS011;3355;52.882;8.430;2024-03-25T10:11:27;5.03;;;1.90;;
6638;SDS011;3355;52.882;8.430;2024-03-25T10:13:53;4.80;;;2.00;;
6638;SDS011;3355;52.882;8.430;2024-03-25T10:16:18;4.90;;;2.30;;
6638;SDS011;3355;52.882;8.430;2024-03-25T10:18:44;7.17;;;2.00;;
6638;SDS011;3355;52.882;8.430;2024-03-25T10:21:09;5.43;;;3.30;;
6638;SDS011;3355;52.882;8.430;2024-03-25T10:23:35;4.73;;;2.67;;
6638;SDS011;3355;52.882;8.430;2024-03-25T10:26:03;8.73;;;2.80;;
6638;SDS011;3355;52.882;8.430;2024-03-25T10:28:30;5.30;;;2.03;;
6638;SDS011;3355;52.882;8.430;2024-03-25T10:30:56;4.50;;;1.90;;
6638;SDS011;3355;52.882;8.430;2024-03-25T10:33:21;7.90;;;2.53;;
6638;SDS011;3355;52.882;8.430;2024-03-25T10:35:49;5.10;;;1.77;;
6638;SDS011;3355;52.882;8.430;2024-03-25T10:38:16;6.00;;;1.87;;
6638;SDS011;3355;52.882;8.430;2024-03-25T10:40:42;5.90;;;2.40;;
6638;SDS011;3355;52.882;8.430;2024-03-25T10:43:09;7.43;;;2.13;;
6638;SDS011;3355;52.882;8.430;2024-03-25T10:45:38;4.17;;;1.50;;
6638;SDS011;3355;52.882;8.430;2024-03-25T10:48:07;4.53;;;1.37;;
6638;SDS011;3355;52.882;8.430;2024-03-25T10:50:35;6.03;;;2.10;;
6638;SDS011;3355;52.882;8.430;2024-03-25T10:53:01;6.60;;;2.30;;
6638;SDS011;3355;52.882;8.430;2024-03-25T10:55:27;10.17;;;2.30;;
6638;SDS011;3355;52.882;8.430;2024-03-25T10:57:54;4.17;;;2.10;;
6638;SDS011;3355;52.882;8.430;2024-03-25T11:00:19;4.70;;;2.03;;
6638;SDS011;3355;52.882;8.430;2024-03-25T11:02:48;5.47;;;2.57;;
6638;SDS011;3355;52.882;8.430;2024-03-25T11:05:14;6.67;;;2.03;;
6638;SDS011;3355;52.882;8.430;2024-03-25T11:07:40;3.47;;;1.47;;
6638;SDS011;3355;52.882;8.430;2024-03-25T11:10:06;5.83;;;1.93;;
6638;SDS011;3355;52.882;8.430;2024-03-25T11:12:32;5.07;;;1.67;;
6638;SDS011;3355;52.882;8.430;2024-03-25T11:14:57;4.20;;;2.00;;
6638;SDS011;3355;52.882;8.430;2024-03-25T11:17:23;4.30;;;1.67;;
6638;SDS011;3355;52.882;8.430;2024-03-25T11:19:50;6.43;;;1.40;;
6638;SDS011;3355;52.882;8.430;2024-03-25T11:22:15;6.70;;;1.53;;
6638;SDS011;3355;52.882;8.430;2024-03-25T11:24:43;5.50;;;1.93;;
6638;SDS011;3355;52.882;8.430;2024-03-25T11:27:09;5.47;;;1.60;;
6638;SDS011;3355;52.882;8.430;2024-03-25T11:29:34;5.43;;;1.43;;
6638;SDS011;3355;52.882;8.430;2024-03-25T11:32:01;4.70;;;1.83;;
6638;SDS011;3355;52.882;8.430;2024-03-25T11:34:28;5.60;;;1.80;;
6638;SDS011;3355;52.882;8.430;2024-03-25T11:36:55;6.60;;;1.70;;
6638;SDS011;3355;52.882;8.430;2024-03-25T11:39:21;5.47;;;1.73;;
6638;SDS011;3355;52.882;8.430;2024-03-25T11:41:54;6.80;;;2.00;;
6638;SDS011;3355;52.882;8.430;2024-03-25T11:44:22;4.60;;;1.50;;
6638;SDS011;3355;52.882;8.430;2024-03-25T11:46:47;4.43;;;2.47;;
6638;SDS011;3355;52.882;8.430;2024-03-25T11:49:14;5.47;;;2.10;;
6638;SDS011;3355;52.882;8.430;2024-03-25T11:51:39;5.90;;;1.83;;
6638;SDS011;3355;52.882;8.430;2024-03-25T11:54:07;4.07;;;1.67;;
6638;SDS011;3355;52.882;8.430;2024-03-25T11:56:38;8.90;;;2.10;;
6638;SDS011;3355;52.882;8.430;2024-03-25T11:59:04;5.33;;;1.67;;
6638;SDS011;3355;52.882;8.430;2024-03-25T12:01:31;4.33;;;1.47;;
6638;SDS011;3355;52.882;8.430;2024-03-25T12:03:57;7.53;;;1.60;;
6638;SDS011;3355;52.882;8.430;2024-03-25T12:06:22;3.93;;;1.90;;
6638;SDS011;3355;52.882;8.430;2024-03-25T12:08:48;4.50;;;1.50;;
6638;SDS011;3355;52.882;8.430;2024-03-25T12:11:30;5.17;;;2.10;;
6638;SDS011;3355;52.882;8.430;2024-03-25T12:13:55;3.20;;;1.93;;
6638;SDS011;3355;52.882;8.430;2024-03-25T12:16:21;2.97;;;1.77;;
6638;SDS011;3355;52.882;8.430;2024-03-25T12:18:46;3.00;;;1.80;;
6638;SDS011;3355;52.882;8.430;2024-03-25T12:21:11;2.90;;;1.43;;
6638;SDS011;3355;52.882;8.430;2024-03-25T12:23:37;6.03;;;2.33;;
6638;SDS011;3355;52.882;8.430;2024-03-25T12:26:03;3.70;;;1.70;;
6638;SDS011;3355;52.882;8.430;2024-03-25T12:28:32;1.70;;;1.30;;
6638;SDS011;3355;52.882;8.430;2024-03-25T12:30:59;4.70;;;1.40;;
6638;SDS011;3355;52.882;8.430;2024-03-25T12:33:25;4.97;;;2.03;;
6638;SDS011;3355;52.882;8.430;2024-03-25T12:35:50;3.03;;;1.40;;
6638;SDS011;3355;52.882;8.430;2024-03-25T12:38:23;3.10;;;1.80;;
6638;SDS011;3355;52.882;8.430;2024-03-25T12:40:48;4.40;;;1.77;;
6638;SDS011;3355;52.882;8.430;2024-03-25T12:43:14;3.53;;;1.87;;
6638;SDS011;3355;52.882;8.430;2024-03-25T12:45:41;3.67;;;1.53;;
6638;SDS011;3355;52.882;8.430;2024-03-25T12:48:07;5.03;;;2.43;;
6638;SDS011;3355;52.882;8.430;2024-03-25T12:50:32;2.40;;;1.40;;
6638;SDS011;3355;52.882;8.430;2024-03-25T12:53:01;6.97;;;2.10;;
6638;SDS011;3355;52.882;8.430;2024-03-25T12:55:29;2.97;;;1.20;;
6638;SDS011;3355;52.882;8.430;2024-03-25T12:57:55;5.60;;;2.00;;
6638;SDS011;3355;52.882;8.430;2024-03-25T13:00:20;4.30;;;1.77;;
6638;SDS011;3355;52.882;8.430;2024-03-25T13:02:47;2.37;;;1.30;;
6638;SDS011;3355;52.882;8.430;2024-03-25T13:05:13;3.17;;;1.03;;
6638;SDS011;3355;52.882;8.430;2024-03-25T13:07:38;3.77;;;1.70;;
6638;SDS011;3355;52.882;8.430;2024-03-25T13:10:03;4.60;;;1.60;;
6638;SDS011;3355;52.882;8.430;2024-03-25T13:12:29;3.60;;;1.50;;
6638;SDS011;3355;52.882;8.430;2024-03-25T13:14:55;3.53;;;1.50;;
6638;SDS011;3355;52.882;8.430;2024-03-25T13:17:21;4.73;;;1.97;;
6638;SDS011;3355;52.882;8.430;2024-03-25T13:19:47;2.73;;;1.40;;
6638;SDS011;3355;52.882;8.430;2024-03-25T13:22:13;5.30;;;2.60;;
6638;SDS011;3355;52.882;8.430;2024-03-25T13:24:38;4.33;;;1.63;;
6638;SDS011;3355;52.882;8.430;2024-03-25T13:27:04;4.27;;;2.33;;
6638;SDS011;3355;52.882;8.430;2024-03-25T13:29:29;2.90;;;1.43;;
6638;SDS011;3355;52.882;8.430;2024-03-25T13:31:55;3.57;;;1.70;;
6638;SDS011;3355;52.882;8.430;2024-03-25T13:34:20;3.80;;;1.40;;
6638;SDS011;3355;52.882;8.430;2024-03-25T13:36:47;3.80;;;1.47;;
6638;SDS011;3355;52.882;8.430;2024-03-25T13:39:13;6.63;;;1.80;;
6638;SDS011;3355;52.882;8.430;2024-03-25T13:41:38;5.53;;;1.70;;
6638;SDS011;3355;52.882;8.430;2024-03-25T13:44:04;5.10;;;1.57;;
6638;SDS011;3355;52.882;8.430;2024-03-25T13:46:29;5.60;;;2.00;;
6638;SDS011;3355;52.882;8.430;2024-03-25T13:49:04;7.60;;;1.60;;
6638;SDS011;3355;52.882;8.430;2024-03-25T13:51:29;2.63;;;1.33;;
6638;SDS011;3355;52.882;8.430;2024-03-25T13:53:56;3.00;;;1.20;;
6638;SDS011;3355;52.882;8.430;2024-03-25T13:56:21;3.30;;;1.80;;
6638;SDS011;3355;52.882;8.430;2024-03-25T13:58:47;3.53;;;1.80;;
6638;SDS011;3355;52.882;8.430;2024-03-25T14:01:12;4.43;;;1.67;;
6638;SDS011;3355;52.882;8.430;2024-03-25T14:03:38;4.57;;;1.70;;
6638;SDS011;3355;52.882;8.430;2024-03-25T14:06:03;2.67;;;1.50;;
6638;SDS011;3355;52.882;8.430;2024-03-25T14:08:29;4.23;;;2.10;;
6638;SDS011;3355;52.882;8.430;2024-03-25T14:10:59;3.20;;;2.03;;
6638;SDS011;3355;52.882;8.430;2024-03-25T14:13:25;6.93;;;1.20;;
6638;SDS011;3355;52.882;8.430;2024-03-25T14:15:50;3.47;;;1.40;;
6638;SDS011;3355;52.882;8.430;2024-03-25T14:18:16;8.40;;;1.67;;
6638;SDS011;3355;52.882;8.430;2024-03-25T14:20:41;3.80;;;1.37;;
6638;SDS011;3355;52.882;8.430;2024-03-25T14:23:07;4.60;;;1.40;;
6638;SDS011;3355;52.882;8.430;2024-03-25T14:25:32;3.17;;;1.53;;
6638;SDS011;3355;52.882;8.430;2024-03-25T14:27:59;4.87;;;1.33;;
6638;SDS011;3355;52.882;8.430;2024-03-25T14:30:24;5.20;;;2.03;;
6638;SDS011;3355;52.882;8.430;2024-03-25T14:32:50;2.10;;;1.20;;
6638;SDS011;3355;52.882;8.430;2024-03-25T14:35:15;4.27;;;1.50;;
6638;SDS011;3355;52.882;8.430;2024-03-25T14:37:41;2.67;;;1.67;;
6638;SDS011;3355;52.882;8.430;2024-03-25T14:40:07;3.27;;;1.70;;
6638;SDS011;3355;52.882;8.430;2024-03-25T14:42:32;4.53;;;1.53;;
6638;SDS011;3355;52.882;8.430;2024-03-25T14:44:59;4.37;;;1.63;;
6638;SDS011;3355;52.882;8.430;2024-03-25T14:47:24;3.67;;;1.37;;
6638;SDS011;3355;52.882;8.430;2024-03-25T14:49:50;3.30;;;1.30;;
6638;SDS011;3355;52.882;8.430;2024-03-25T14:52:15;5.90;;;1.87;;
6638;SDS011;3355;52.882;8.430;2024-03-25T14:54:41;4.50;;;2.33;;
6638;SDS011;3355;52.882;8.430;2024-03-25T14:57:06;5.20;;;2.03;;
6638;SDS011;3355;52.882;8.430;2024-03-25T14:59:31;6.63;;;2.27;;
6638;SDS011;3355;52.882;8.430;2024-03-25T15:01:59;5.40;;;1.93;;
6638;SDS011;3355;52.882;8.430;2024-03-25T15:04:24;5.20;;;1.70;;
6638;SDS011;3355;52.882;8.430;2024-03-25T15:06:50;6.37;;;2.27;;
6638;SDS011;3355;52.882;8.430;2024-03-25T15:09:15;3.60;;;2.30;;
6638;SDS011;3355;52.882;8.430;2024-03-25T15:11:40;4.40;;;2.20;;
6638;SDS011;3355;52.882;8.430;2024-03-25T15:14:06;7.40;;;2.00;;
6638;SDS011;3355;52.882;8.430;2024-03-25T15:16:32;4.40;;;1.80;;
6638;SDS011;3355;52.882;8.430;2024-03-25T15:18:59;5.23;;;2.37;;
6638;SDS011;3355;52.882;8.430;2024-03-25T15:21:24;2.30;;;1.60;;
6638;SDS011;3355;52.882;8.430;2024-03-25T15:23:49;2.80;;;1.77;;
6638;SDS011;3355;52.882;8.430;2024-03-25T15:26:15;2.30;;;1.67;;
6638;SDS011;3355;52.882;8.430;2024-03-25T15:28:40;4.30;;;1.80;;
6638;SDS011;3355;52.882;8.430;2024-03-25T15:31:06;4.53;;;1.50;;
6638;SDS011;3355;52.882;8.430;2024-03-25T15:33:31;6.07;;;2.03;;
6638;SDS011;3355;52.882;8.430;2024-03-25T15:35:59;3.60;;;1.50;;
6638;SDS011;3355;52.882;8.430;2024-03-25T15:38:24;3.73;;;1.70;;
6638;SDS011;3355;52.882;8.430;2024-03-25T15:40:49;5.50;;;1.70;;
6638;SDS011;3355;52.882;8.430;2024-03-25T15:43:15;3.30;;;2.00;;
6638;SDS011;3355;52.882;8.430;2024-03-25T15:45:40;4.77;;;1.93;;
6638;SDS011;3355;52.882;8.430;2024-03-25T15:48:06;4.90;;;1.80;;
6638;SDS011;3355;52.882;8.430;2024-03-25T15:50:32;4.13;;;2.23;;
6638;SDS011;3355;52.882;8.430;2024-03-25T15:52:59;3.60;;;1.90;;
6638;SDS011;3355;52.882;8.430;2024-03-25T15:55:24;6.03;;;2.63;;
6638;SDS011;3355;52.882;8.430;2024-03-25T15:57:50;3.63;;;1.63;;
6638;SDS011;3355;52.882;8.430;2024-03-25T16:00:15;4.97;;;2.10;;
6638;SDS011;3355;52.882;8.430;2024-03-25T16:02:41;3.33;;;2.07;;
6638;SDS011;3355;52.882;8.430;2024-03-25T16:05:06;7.20;;;1.77;;
6638;SDS011;3355;52.882;8.430;2024-03-25T16:07:35;2.70;;;1.90;;
6638;SDS011;3355;52.882;8.430;2024-03-25T16:10:02;7.47;;;2.50;;
6638;SDS011;3355;52.882;8.430;2024-03-25T16:12:28;2.07;;;1.20;;
6638;SDS011;3355;52.882;8.430;2024-03-25T16:14:53;3.73;;;1.83;;
6638;SDS011;3355;52.882;8.430;2024-03-25T16:17:18;4.70;;;2.13;;
6638;SDS011;3355;52.882;8.430;2024-03-25T16:19:44;4.63;;;2.33;;
6638;SDS011;3355;52.882;8.430;2024-03-25T16:22:09;2.50;;;1.70;;
6638;SDS011;3355;52.882;8.430;2024-03-25T16:24:35;2.10;;;1.30;;
6638;SDS011;3355;52.882;8.430;2024-03-25T16:27:02;2.87;;;1.40;;
6638;SDS011;3355;52.882;8.430;2024-03-25T16:29:28;3.20;;;1.60;;
6638;SDS011;3355;52.882;8.430;2024-03-25T16:31:53;5.30;;;3.10;;
6638;SDS011;3355;52.882;8.430;2024-03-25T16:34:19;5.30;;;2.80;;
6638;SDS011;3355;52.882;8.430;2024-03-25T16:36:44;4.53;;;1.80;;
6638;SDS011;3355;52.882;8.430;2024-03-25T16:39:10;3.83;;;1.60;;
6638;SDS011;3355;52.882;8.430;2024-03-25T16:41:35;4.50;;;1.97;;
6638;SDS011;3355;52.882;8.430;2024-03-25T16:44:02;4.73;;;1.60;;
6638;SDS011;3355;52.882;8.430;2024-03-25T16:46:27;5.53;;;1.70;;
6638;SDS011;3355;52.882;8.430;2024-03-25T16:48:53;6.03;;;2.27;;
6638;SDS011;3355;52.882;8.430;2024-03-25T16:51:18;3.80;;;1.40;;
6638;SDS011;3355;52.882;8.430;2024-03-25T16:53:44;3.37;;;2.10;;
6638;SDS011;3355;52.882;8.430;2024-03-25T16:56:09;2.90;;;1.80;;
6638;SDS011;3355;52.882;8.430;2024-03-25T16:58:35;2.60;;;1.20;;
6638;SDS011;3355;52.882;8.430;2024-03-25T17:01:02;5.20;;;1.60;;
6638;SDS011;3355;52.882;8.430;2024-03-25T17:03:27;6.33;;;2.30;;
6638;SDS011;3355;52.882;8.430;2024-03-25T17:05:53;4.53;;;1.70;;
6638;SDS011;3355;52.882;8.430;2024-03-25T17:08:18;2.70;;;1.47;;
6638;SDS011;3355;52.882;8.430;2024-03-25T17:10:44;2.40;;;1.23;;
6638;SDS011;3355;52.882;8.430;2024-03-25T17:13:09;2.30;;;1.23;;
6638;SDS011;3355;52.882;8.430;2024-03-25T17:15:34;3.67;;;1.33;;
6638;SDS011;3355;52.882;8.430;2024-03-25T17:18:03;3.07;;;1.50;;
6638;SDS011;3355;52.882;8.430;2024-03-25T17:20:31;4.53;;;1.90;;
6638;SDS011;3355;52.882;8.430;2024-03-25T17:22:57;3.43;;;1.33;;
6638;SDS011;3355;52.882;8.430;2024-03-25T17:25:22;3.23;;;1.90;;
6638;SDS011;3355;52.882;8.430;2024-03-25T17:27:48;2.93;;;1.50;;
6638;SDS011;3355;52.882;8.430;2024-03-25T17:30:14;5.70;;;2.00;;
6638;SDS011;3355;52.882;8.430;2024-03-25T17:32:40;6.03;;;1.97;;
6638;SDS011;3355;52.882;8.430;2024-03-25T17:35:07;3.50;;;1.73;;
6638;SDS011;3355;52.882;8.430;2024-03-25T17:37:32;3.23;;;1.50;;
6638;SDS011;3355;52.882;8.430;2024-03-25T17:39:58;5.63;;;2.07;;
6638;SDS011;3355;52.882;8.430;2024-03-25T17:42:23;6.20;;;2.00;;
6638;SDS011;3355;52.882;8.430;2024-03-25T17:44:49;5.30;;;4.10;;
6638;SDS011;3355;52.882;8.430;2024-03-25T17:47:14;8.40;;;2.30;;
6638;SDS011;3355;52.882;8.430;2024-03-25T17:49:40;2.50;;;1.60;;
6638;SDS011;3355;52.882;8.430;2024-03-25T17:52:07;4.73;;;2.17;;
6638;SDS011;3355;52.882;8.430;2024-03-25T17:54:32;5.60;;;2.10;;
6638;SDS011;3355;52.882;8.430;2024-03-25T17:56:58;4.07;;;2.60;;
6638;SDS011;3355;52.882;8.430;2024-03-25T17:59:23;3.77;;;2.43;;
6638;SDS011;3355;52.882;8.430;2024-03-25T18:01:49;3.47;;;2.20;;
6638;SDS011;3355;52.882;8.430;2024-03-25T18:04:14;4.23;;;2.87;;
6638;SDS011;3355;52.882;8.430;2024-03-25T18:06:40;11.80;;;5.00;;
6638;SDS011;3355;52.882;8.430;2024-03-25T18:09:06;10.10;;;4.10;;
6638;SDS011;3355;52.882;8.430;2024-03-25T18:11:32;10.83;;;5.80;;
6638;SDS011;3355;52.882;8.430;2024-03-25T18:13:58;7.60;;;4.30;;
6638;SDS011;3355;52.882;8.430;2024-03-25T18:16:23;7.03;;;4.57;;
6638;SDS011;3355;52.882;8.430;2024-03-25T18:18:48;6.83;;;4.60;;
6638;SDS011;3355;52.882;8.430;2024-03-25T18:21:14;7.33;;;4.43;;
6638;SDS011;3355;52.882;8.430;2024-03-25T18:23:39;11.33;;;5.60;;
6638;SDS011;3355;52.882;8.430;2024-03-25T18:26:06;6.50;;;4.37;;
6638;SDS011;3355;52.882;8.430;2024-03-25T18:28:32;10.00;;;4.07;;
6638;SDS011;3355;52.882;8.430;2024-03-25T18:31:04;6.37;;;3.60;;
6638;SDS011;3355;52.882;8.430;2024-03-25T18:33:29;3.57;;;2.70;;
6638;SDS011;3355;52.882;8.430;2024-03-25T18:35:59;4.60;;;2.80;;
6638;SDS011;3355;52.882;8.430;2024-03-25T18:38:24;10.20;;;3.83;;
6638;SDS011;3355;52.882;8.430;2024-03-25T18:40:50;5.70;;;3.10;;
6638;SDS011;3355;52.882;8.430;2024-03-25T18:43:17;6.77;;;3.53;;
6638;SDS011;3355;52.882;8.430;2024-03-25T18:45:42;10.63;;;4.03;;
6638;SDS011;3355;52.882;8.430;2024-03-25T18:48:11;6.17;;;3.27;;
6638;SDS011;3355;52.882;8.430;2024-03-25T18:50:40;6.13;;;2.70;;
6638;SDS011;3355;52.882;8.430;2024-03-25T18:53:05;5.90;;;3.63;;
6638;SDS011;3355;52.882;8.430;2024-03-25T18:55:31;6.10;;;3.37;;
6638;SDS011;3355;52.882;8.430;2024-03-25T18:57:56;5.53;;;3.10;;
6638;SDS011;3355;52.882;8.430;2024-03-25T19:00:23;4.80;;;2.70;;
6638;SDS011;3355;52.882;8.430;2024-03-25T19:02:48;5.70;;;3.40;;
6638;SDS011;3355;52.882;8.430;2024-03-25T19:05:14;3.77;;;2.80;;
6638;SDS011;3355;52.882;8.430;2024-03-25T19:07:40;6.20;;;3.37;;
6638;SDS011;3355;52.882;8.430;2024-03-25T19:10:05;8.33;;;3.80;;
6638;SDS011;3355;52.882;8.430;2024-03-25T19:12:33;4.97;;;2.90;;
6638;SDS011;3355;52.882;8.430;2024-03-25T19:14:58;7.73;;;2.87;;
6638;SDS011;3355;52.882;8.430;2024-03-25T19:17:25;3.93;;;2.77;;
6638;SDS011;3355;52.882;8.430;2024-03-25T19:19:51;7.57;;;2.90;;
6638;SDS011;3355;52.882;8.430;2024-03-25T19:22:16;10.43;;;3.20;;
6638;SDS011;3355;52.882;8.430;2024-03-25T19:24:42;4.67;;;2.67;;
6638;SDS011;3355;52.882;8.430;2024-03-25T19:27:07;4.97;;;3.27;;
6638;SDS011;3355;52.882;8.430;2024-03-25T19:29:33;4.73;;;2.77;;
6638;SDS011;3355;52.882;8.430;2024-03-25T19:31:58;3.93;;;2.10;;
6638;SDS011;3355;52.882;8.430;2024-03-25T19:34:25;4.17;;;2.60;;
6638;SDS011;3355;52.882;8.430;2024-03-25T19:36:50;3.43;;;2.57;;
6638;SDS011;3355;52.882;8.430;2024-03-25T19:39:16;4.20;;;2.90;;
6638;SDS011;3355;52.882;8.430;2024-03-25T19:41:41;3.90;;;2.20;;
6638;SDS011;3355;52.882;8.430;2024-03-25T19:44:07;6.77;;;2.93;;
6638;SDS011;3355;52.882;8.430;2024-03-25T19:46:32;4.47;;;2.30;;
6638;SDS011;3355;52.882;8.430;2024-03-25T19:48:58;5.20;;;3.10;;
6638;SDS011;3355;52.882;8.430;2024-03-25T19:51:25;4.97;;;2.40;;
6638;SDS011;3355;52.882;8.430;2024-03-25T19:53:50;4.13;;;2.80;;
6638;SDS011;3355;52.882;8.430;2024-03-25T19:56:16;4.43;;;2.83;;
6638;SDS011;3355;52.882;8.430;2024-03-25T19:58:46;4.97;;;2.70;;
6638;SDS011;3355;52.882;8.430;2024-03-25T20:01:19;7.33;;;3.13;;
6638;SDS011;3355;52.882;8.430;2024-03-25T20:03:56;5.30;;;3.80;;
6638;SDS011;3355;52.882;8.430;2024-03-25T20:06:35;7.70;;;5.53;;
6638;SDS011;3355;52.882;8.430;2024-03-25T20:09:09;4.50;;;4.10;;
6638;SDS011;3355;52.882;8.430;2024-03-25T20:11:34;7.90;;;3.73;;
6638;SDS011;3355;52.882;8.430;2024-03-25T20:14:00;4.03;;;2.77;;
6638;SDS011;3355;52.882;8.430;2024-03-25T20:16:25;11.13;;;2.93;;
6638;SDS011;3355;52.882;8.430;2024-03-25T20:18:51;4.17;;;2.70;;
6638;SDS011;3355;52.882;8.430;2024-03-25T20:21:16;5.43;;;2.73;;
6638;SDS011;3355;52.882;8.430;2024-03-25T20:23:43;5.10;;;2.73;;
6638;SDS011;3355;52.882;8.430;2024-03-25T20:26:08;2.87;;;2.10;;
6638;SDS011;3355;52.882;8.430;2024-03-25T20:28:34;6.50;;;2.73;;
6638;SDS011;3355;52.882;8.430;2024-03-25T20:30:59;3.70;;;2.80;;
6638;SDS011;3355;52.882;8.430;2024-03-25T20:33:25;3.17;;;2.03;;
6638;SDS011;3355;52.882;8.430;2024-03-25T20:35:50;5.40;;;2.90;;
6638;SDS011;3355;52.882;8.430;2024-03-25T20:38:15;6.03;;;3.40;;
6638;SDS011;3355;52.882;8.430;2024-03-25T20:40:43;4.70;;;2.20;;
6638;SDS011;3355;52.882;8.430;2024-03-25T20:43:08;6.13;;;2.73;;
6638;SDS011;3355;52.882;8.430;2024-03-25T20:45:34;5.30;;;3.10;;
6638;SDS011;3355;52.882;8.430;2024-03-25T20:47:59;3.07;;;2.23;;
6638;SDS011;3355;52.882;8.430;2024-03-25T20:50:24;5.27;;;2.77;;
6638;SDS011;3355;52.882;8.430;2024-03-25T20:52:50;4.37;;;2.60;;
6638;SDS011;3355;52.882;8.430;2024-03-25T20:55:15;5.47;;;3.27;;
6638;SDS011;3355;52.882;8.430;2024-03-25T20:57:51;5.90;;;2.87;;
6638;SDS011;3355;52.882;8.430;2024-03-25T21:00:17;3.93;;;2.50;;
6638;SDS011;3355;52.882;8.430;2024-03-25T21:02:42;6.77;;;2.20;;
6638;SDS011;3355;52.882;8.430;2024-03-25T21:05:08;4.53;;;3.10;;
6638;SDS011;3355;52.882;8.430;2024-03-25T21:07:33;3.20;;;2.43;;
6638;SDS011;3355;52.882;8.430;2024-03-25T21:09:59;3.60;;;2.30;;
6638;SDS011;3355;52.882;8.430;2024-03-25T21:12:24;4.97;;;2.60;;
6638;SDS011;3355;52.882;8.430;2024-03-25T21:14:51;5.00;;;2.77;;
6638;SDS011;3355;52.882;8.430;2024-03-25T21:17:17;3.93;;;2.43;;
6638;SDS011;3355;52.882;8.430;2024-03-25T21:19:42;3.83;;;2.47;;
6638;SDS011;3355;52.882;8.430;2024-03-25T21:22:07;4.53;;;2.30;;
6638;SDS011;3355;52.882;8.430;2024-03-25T21:24:33;4.27;;;2.43;;
6638;SDS011;3355;52.882;8.430;2024-03-25T21:26:58;4.33;;;3.00;;
6638;SDS011;3355;52.882;8.430;2024-03-25T21:29:24;4.30;;;2.50;;
6638;SDS011;3355;52.882;8.430;2024-03-25T21:31:51;5.23;;;3.03;;
6638;SDS011;3355;52.882;8.430;2024-03-25T21:34:16;4.17;;;2.77;;
6638;SDS011;3355;52.882;8.430;2024-03-25T21:36:42;9.53;;;3.50;;
6638;SDS011;3355;52.882;8.430;2024-03-25T21:39:07;4.10;;;2.97;;
6638;SDS011;3355;52.882;8.430;2024-03-25T21:41:33;3.87;;;2.90;;
6638;SDS011;3355;52.882;8.430;2024-03-25T21:43:58;4.97;;;2.63;;
6638;SDS011;3355;52.882;8.430;2024-03-25T21:46:23;3.77;;;2.20;;
6638;SDS011;3355;52.882;8.430;2024-03-25T21:48:50;7.30;;;2.90;;
6638;SDS011;3355;52.882;8.430;2024-03-25T21:51:16;8.57;;;3.03;;
6638;SDS011;3355;52.882;8.430;2024-03-25T21:53:41;8.33;;;2.80;;
6638;SDS011;3355;52.882;8.430;2024-03-25T21:56:07;3.77;;;3.07;;
6638;SDS011;3355;52.882;8.430;2024-03-25T21:58:32;5.80;;;2.37;;
6638;SDS011;3355;52.882;8.430;2024-03-25T22:00:58;4.07;;;3.10;;
6638;SDS011;3355;52.882;8.430;2024-03-25T22:03:23;2.50;;;2.10;;
6638;SDS011;3355;52.882;8.430;2024-03-25T22:05:50;3.97;;;2.60;;
6638;SDS011;3355;52.882;8.430;2024-03-25T22:08:15;5.07;;;2.63;;
6638;SDS011;3355;52.882;8.430;2024-03-25T22:10:41;4.00;;;2.40;;